Current | Forecast
Updated: 8:30 PM MSK on April 28, 2017
Observed at Murmansk, Russia
Temperature 37°F
Humidity 45%
Dew Point 18°F
Wind NW at 2 mph
Pressure 30.33 in (Steady)
Conditions Clear
Visibility -
UV N/A
Clouds
Yesterday's Maximum 34°F
Yesterday's Minimum 28°F approx.
Yesterday's Heating Degree Days 34 approx.
Sunrise3:48 AM MSK
Sunset9:46 PM MSK
Moon Rise5:20 AM MSK
Moon Set
Moon PhaseMoon Phase
Waxing Crescent
Raw METARMETAR ULMM 281730Z 31001MPS CAVOK 03/M08 Q1027 R31/190062 NOSIG RMK QFE763


Monday
. High: 35° F.
Tuesday
. High: 42° F.
Wednesday
. High: 44° F.
Thursday
. High: 50° F.
Friday
. High: 57° F.
Saturday
. High: 57° F.
Sunday
. High: 59° F.
Monday
. High: 55° F.

Units: English | Metric

Find the Weather for any City, State or Zipcode, or Country:

U.S. State List | Severe Weather | Tropical Storms | Ski Conditions
United States | Canada | Central America | South America | Asia | Europe | Australia | Africa | Islands

Weather Underground

© Copyright 2017
The Weather Company, LLC